createdAt,value
2018-01-16T00:01:35.880Z,93.06
2018-01-16T00:04:04.880Z,93.52
2018-01-16T00:06:33.911Z,92.92
2018-01-16T00:09:02.173Z,92.73
2018-01-16T00:11:31.310Z,92.80
2018-01-16T00:13:59.555Z,92.88
2018-01-16T00:16:28.592Z,93.42
2018-01-16T00:18:56.841Z,93.04
2018-01-16T00:21:25.074Z,93.68
2018-01-16T00:23:53.337Z,93.52
2018-01-16T00:26:22.356Z,93.65
2018-01-16T00:28:50.610Z,93.31
2018-01-16T00:31:18.888Z,93.45
2018-01-16T00:33:47.167Z,93.97
2018-01-16T00:36:15.488Z,93.96
2018-01-16T00:38:44.569Z,94.16
2018-01-16T00:41:12.911Z,94.39
2018-01-16T00:43:41.166Z,94.86
2018-01-16T00:46:09.417Z,94.64
2018-01-16T00:48:37.682Z,94.15
2018-01-16T00:51:05.951Z,93.56
2018-01-16T00:53:34.995Z,94.43
2018-01-16T00:56:03.260Z,93.68
2018-01-16T00:58:31.518Z,93.72
2018-01-16T01:00:59.769Z,94.06
2018-01-16T01:03:28.032Z,93.78
2018-01-16T01:05:56.276Z,93.42
2018-01-16T01:08:24.533Z,93.57
2018-01-16T01:10:52.782Z,93.28
2018-01-16T01:13:21.813Z,93.21
2018-01-16T01:15:50.107Z,93.02
2018-01-16T01:18:19.224Z,92.63
2018-01-16T01:20:47.513Z,93.12
2018-01-16T01:23:15.847Z,92.60
2018-01-16T01:25:44.171Z,92.37
2018-01-16T01:28:12.459Z,92.42
2018-01-16T01:30:40.714Z,92.60
2018-01-16T01:33:08.973Z,92.69
2018-01-16T01:35:37.226Z,91.81
2018-01-16T01:38:05.477Z,92.01
2018-01-16T01:40:33.758Z,91.70
2018-01-16T01:43:02.032Z,92.27
2018-01-16T01:45:30.291Z,91.90
2018-01-16T01:47:58.570Z,92.50
2018-01-16T01:50:26.837Z,91.24
2018-01-16T01:52:55.858Z,90.31
2018-01-16T01:55:24.114Z,90.43
2018-01-16T01:57:52.351Z,90.60
2018-01-16T02:00:20.620Z,89.76
2018-01-16T02:02:48.869Z,89.46
2018-01-16T02:05:17.139Z,89.85
2018-01-16T02:07:45.382Z,89.62
2018-01-16T02:10:14.402Z,89.68
2018-01-16T02:12:42.691Z,89.57
2018-01-16T02:15:11.719Z,89.19
2018-01-16T02:17:39.983Z,89.67
2018-01-16T02:20:08.283Z,89.66
2018-01-16T02:22:36.527Z,89.08
2018-01-16T02:25:04.811Z,88.27
2018-01-16T02:27:33.055Z,88.83
2018-01-16T02:30:01.313Z,89.51
2018-01-16T02:32:29.546Z,89.25
2018-01-16T02:34:57.824Z,89.46
2018-01-16T02:37:26.858Z,89.34
2018-01-16T02:39:55.127Z,89.51
2018-01-16T02:42:23.372Z,89.16
2018-01-16T02:44:52.406Z,89.12
2018-01-16T02:47:20.656Z,89.62
2018-01-16T02:49:49.681Z,89.92
2018-01-16T02:52:17.939Z,89.95
2018-01-16T02:54:46.203Z,89.27
2018-01-16T02:57:14.456Z,89.10
2018-01-16T02:59:42.715Z,88.47
2018-01-16T03:02:11.731Z,88.10
2018-01-16T03:04:40.755Z,88.44
2018-01-16T03:07:09.004Z,88.49
2018-01-16T03:09:37.313Z,87.98
2018-01-16T03:12:06.348Z,87.97
2018-01-16T03:14:35.548Z,88.74
2018-01-16T03:17:03.804Z,89.69
2018-01-16T03:19:32.052Z,89.49
2018-01-16T03:22:00.319Z,89.44
2018-01-16T03:24:28.563Z,89.85
2018-01-16T03:26:56.835Z,89.15
2018-01-16T03:29:25.091Z,89.03
2018-01-16T03:31:53.372Z,88.33
2018-01-16T03:34:22.406Z,88.22
2018-01-16T03:36:50.732Z,88.51
2018-01-16T03:39:19.828Z,88.77
2018-01-16T03:41:48.149Z,88.66
2018-01-16T03:44:18.583Z,89.01
2018-01-16T03:46:47.659Z,89.12
2018-01-16T03:49:16.657Z,89.18
2018-01-16T03:51:44.911Z,89.57
2018-01-16T03:54:13.159Z,89.81
2018-01-16T03:56:41.425Z,90.46
2018-01-16T03:59:09.666Z,90.33
2018-01-16T04:01:37.986Z,90.39
2018-01-16T04:04:06.222Z,89.32
2018-01-16T04:06:34.491Z,89.45
2018-01-16T04:09:02.740Z,89.09
2018-01-16T04:11:31.016Z,89.63
2018-01-16T04:13:59.265Z,89.36
2018-01-16T04:16:27.536Z,88.92
2018-01-16T04:18:55.779Z,89.33
2018-01-16T04:21:24.026Z,89.49
2018-01-16T04:23:52.278Z,88.65
2018-01-16T04:26:20.542Z,88.36
2018-01-16T04:28:48.775Z,88.62
2018-01-16T04:31:17.048Z,88.62
2018-01-16T04:33:45.302Z,89.01
2018-01-16T04:36:14.318Z,88.84
2018-01-16T04:38:43.347Z,88.54
2018-01-16T04:41:11.678Z,87.79
2018-01-16T04:43:39.966Z,87.69
2018-01-16T04:46:09.063Z,88.05
2018-01-16T04:48:37.366Z,88.44
2018-01-16T04:51:05.651Z,88.71
2018-01-16T04:53:33.894Z,90.08
2018-01-16T04:56:02.144Z,89.77
2018-01-16T04:58:31.168Z,90.47
2018-01-16T05:01:00.196Z,90.68
2018-01-16T05:03:28.483Z,90.84
2018-01-16T05:05:56.755Z,90.81
2018-01-16T05:08:25.024Z,91.37
2018-01-16T05:10:53.263Z,91.15
2018-01-16T05:13:21.535Z,90.60
2018-01-16T05:15:49.793Z,90.29
2018-01-16T05:18:18.815Z,90.52
2018-01-16T05:20:47.063Z,90.83
2018-01-16T05:23:15.336Z,90.24
2018-01-16T05:25:43.591Z,90.79
2018-01-16T05:28:11.892Z,91.12
2018-01-16T05:30:40.154Z,90.83
2018-01-16T05:33:08.467Z,90.51
2018-01-16T05:35:36.712Z,90.49
2018-01-16T05:38:05.736Z,90.66
2018-01-16T05:40:34.748Z,90.38
2018-01-16T05:43:03.025Z,90.68
2018-01-16T05:45:32.280Z,90.84
2018-01-16T05:48:00.640Z,91.68
2018-01-16T05:50:28.891Z,91.85
2018-01-16T05:52:57.168Z,92.33
2018-01-16T05:55:25.411Z,93.04
2018-01-16T05:57:53.671Z,93.20
2018-01-16T06:00:21.978Z,93.26
2018-01-16T06:02:51.072Z,93.02
2018-01-16T06:05:19.351Z,93.27
2018-01-16T06:07:47.603Z,93.39
2018-01-16T06:10:15.894Z,93.25
2018-01-16T06:12:44.147Z,92.64
2018-01-16T06:15:12.408Z,92.62
2018-01-16T06:17:40.926Z,92.40
2018-01-16T06:20:09.971Z,92.09
2018-01-16T06:22:38.273Z,93.05
2018-01-16T06:25:06.546Z,93.48
2018-01-16T06:27:34.787Z,93.10
2018-01-16T06:30:03.868Z,93.55
2018-01-16T06:32:32.106Z,94.05
2018-01-16T06:35:00.364Z,93.23
2018-01-16T06:37:29.370Z,91.98
2018-01-16T06:39:57.643Z,92.42
2018-01-16T06:42:25.891Z,92.19
2018-01-16T06:44:54.197Z,92.39
2018-01-16T06:47:22.463Z,92.86
2018-01-16T06:49:50.773Z,91.33
2018-01-16T06:52:19.034Z,91.99
2018-01-16T06:54:47.301Z,91.99
2018-01-16T06:57:16.299Z,91.22
2018-01-16T06:59:45.323Z,92.48
2018-01-16T07:02:14.339Z,90.44
2018-01-16T07:04:42.584Z,90.41
2018-01-16T07:07:10.835Z,90.09
2018-01-16T07:09:39.107Z,90.53
2018-01-16T07:12:07.384Z,90.61
2018-01-16T07:14:36.412Z,89.46
2018-01-16T07:17:04.659Z,90.02
2018-01-16T07:19:32.938Z,90.35
2018-01-16T07:22:01.203Z,90.38
2018-01-16T07:24:29.459Z,90.09
2018-01-16T07:26:57.723Z,89.93
2018-01-16T07:29:25.987Z,88.47
2018-01-16T07:31:54.237Z,87.58
2018-01-16T07:34:22.505Z,87.84
2018-01-16T07:36:51.511Z,87.30
2018-01-16T07:39:19.753Z,85.19
2018-01-16T07:41:48.027Z,84.84
2018-01-16T07:44:16.281Z,85.19
2018-01-16T07:46:44.608Z,85.02
2018-01-16T07:49:13.672Z,84.69
2018-01-16T07:51:42.781Z,83.08
2018-01-16T07:54:11.843Z,84.03
2018-01-16T07:56:40.127Z,84.22
2018-01-16T07:59:08.454Z,85.70
2018-01-16T08:01:37.483Z,83.38
2018-01-16T08:04:05.735Z,84.32
2018-01-16T08:06:33.991Z,84.33
2018-01-16T08:09:02.249Z,84.28
2018-01-16T08:11:30.516Z,85.41
2018-01-16T08:13:59.608Z,85.69
2018-01-16T08:16:29.514Z,87.95
2018-01-16T08:18:57.847Z,86.79
2018-01-16T08:21:26.879Z,86.61
2018-01-16T08:23:55.142Z,87.32
2018-01-16T08:26:24.172Z,88.61
2018-01-16T08:28:52.408Z,88.02
2018-01-16T08:31:20.669Z,87.79
2018-01-16T08:33:48.912Z,88.56
2018-01-16T08:36:17.942Z,88.45
2018-01-16T08:38:46.226Z,88.93
2018-01-16T08:41:14.532Z,89.89
2018-01-16T08:43:42.899Z,88.97
2018-01-16T08:46:11.934Z,90.13
2018-01-16T08:48:40.182Z,89.12
2018-01-16T08:51:09.219Z,88.93
2018-01-16T08:53:37.468Z,89.65
2018-01-16T08:56:06.521Z,91.09
2018-01-16T08:58:34.774Z,91.37
2018-01-16T09:01:03.058Z,91.13
2018-01-16T09:03:31.421Z,90.33
2018-01-16T09:05:59.719Z,90.70
2018-01-16T09:08:27.962Z,90.64
2018-01-16T09:10:56.213Z,90.48
2018-01-16T09:13:25.292Z,88.92
2018-01-16T09:15:53.542Z,88.61
2018-01-16T09:18:21.860Z,88.20
2018-01-16T09:20:50.152Z,87.78
2018-01-16T09:23:18.611Z,88.16
2018-01-16T09:25:47.648Z,87.99
2018-01-16T09:28:15.977Z,87.56
2018-01-16T09:30:44.993Z,87.92
2018-01-16T09:33:14.024Z,87.17
2018-01-16T09:35:42.270Z,86.95
2018-01-16T09:38:10.548Z,85.45
2018-01-16T09:40:38.800Z,84.59
2018-01-16T09:43:07.162Z,84.90
2018-01-16T09:45:35.457Z,83.19
2018-01-16T09:48:03.719Z,81.63
2018-01-16T09:50:31.965Z,81.25
2018-01-16T09:53:00.248Z,81.55
2018-01-16T09:55:28.518Z,80.64
2018-01-16T09:57:56.833Z,80.22
2018-01-16T10:00:25.074Z,80.71
2018-01-16T10:02:53.346Z,79.09
2018-01-16T10:05:21.631Z,81.10
2018-01-16T10:07:49.887Z,81.10
2018-01-16T10:10:18.147Z,82.46
2018-01-16T10:12:47.205Z,82.54
2018-01-16T10:15:16.261Z,82.81
2018-01-16T10:17:44.531Z,82.04
2018-01-16T10:20:14.151Z,84.82
2018-01-16T10:22:42.450Z,84.85
2018-01-16T10:25:11.485Z,85.79
2018-01-16T10:27:39.767Z,86.77
2018-01-16T10:30:08.097Z,86.59
2018-01-16T10:32:36.393Z,88.42
2018-01-16T10:35:04.647Z,87.81
2018-01-16T10:37:32.896Z,88.82
2018-01-16T10:40:02.558Z,89.16
2018-01-16T10:42:30.807Z,89.01
2018-01-16T10:44:59.118Z,89.10
2018-01-16T10:47:27.390Z,89.32
2018-01-16T10:49:56.429Z,87.79
2018-01-16T10:52:24.683Z,88.01
2018-01-16T10:54:53.723Z,86.78
2018-01-16T10:57:21.971Z,86.54
2018-01-16T10:59:51.763Z,87.09
2018-01-16T11:02:20.016Z,86.65
2018-01-16T11:04:48.279Z,86.37
2018-01-16T11:07:17.283Z,86.18
2018-01-16T11:09:46.328Z,86.69
2018-01-16T11:12:14.573Z,91.36
2018-01-16T11:14:43.622Z,84.50
2018-01-16T11:17:11.883Z,86.41
2018-01-16T11:19:40.979Z,86.71
2018-01-16T11:22:09.275Z,87.35
2018-01-16T11:24:37.579Z,86.52
2018-01-16T11:27:05.875Z,86.11
2018-01-16T11:29:34.129Z,86.39
2018-01-16T11:32:03.152Z,86.79
2018-01-16T11:34:32.372Z,87.67
2018-01-16T11:37:01.062Z,88.81
2018-01-16T11:39:30.087Z,88.75
2018-01-16T11:41:58.516Z,89.44
2018-01-16T11:44:26.827Z,90.15
2018-01-16T11:46:55.063Z,88.76
2018-01-16T11:49:23.333Z,88.60
2018-01-16T11:51:51.583Z,88.58
2018-01-16T11:54:19.850Z,88.90
2018-01-16T11:56:48.095Z,87.72
2018-01-16T11:59:16.362Z,88.52
2018-01-16T12:01:44.635Z,88.00
2018-01-16T12:04:12.921Z,88.45
2018-01-16T12:06:41.182Z,87.58
2018-01-16T12:09:09.467Z,88.10
2018-01-16T12:11:37.793Z,88.21
2018-01-16T12:14:06.024Z,88.05
2018-01-16T12:16:34.287Z,88.20
2018-01-16T12:19:02.546Z,88.27
2018-01-16T12:21:30.802Z,89.29
2018-01-16T12:23:59.080Z,89.33
2018-01-16T12:26:27.358Z,86.10
2018-01-16T12:28:55.605Z,83.96
2018-01-16T12:31:23.885Z,80.57
2018-01-16T12:33:52.128Z,80.30
2018-01-16T12:36:20.403Z,80.55
2018-01-16T12:38:48.651Z,75.56
2018-01-16T12:41:16.906Z,77.44
2018-01-16T12:43:45.162Z,79.32
2018-01-16T12:46:13.515Z,78.29
2018-01-16T12:48:41.841Z,78.07
2018-01-16T12:51:10.889Z,77.45
2018-01-16T12:53:39.183Z,78.80
2018-01-16T12:56:07.444Z,79.52
2018-01-16T12:58:35.696Z,80.43
2018-01-16T13:01:03.979Z,80.84
2018-01-16T13:03:32.215Z,77.74
2018-01-16T13:06:00.470Z,75.59
2018-01-16T13:08:28.723Z,77.81
2018-01-16T13:10:57.039Z,77.26
2018-01-16T13:13:25.304Z,76.81
2018-01-16T13:15:53.575Z,75.40
2018-01-16T13:18:21.848Z,75.28
2018-01-16T13:20:50.873Z,76.71
2018-01-16T13:23:19.123Z,73.64
2018-01-16T13:25:48.143Z,75.20
2018-01-16T13:28:17.159Z,73.86
2018-01-16T13:30:45.435Z,73.63
2018-01-16T13:33:14.457Z,71.25
2018-01-16T13:35:42.711Z,72.19
2018-01-16T13:38:10.993Z,71.94
2018-01-16T13:40:39.246Z,71.15
2018-01-16T13:43:07.500Z,67.59
2018-01-16T13:45:36.512Z,66.01
2018-01-16T13:48:04.783Z,65.92
2018-01-16T13:50:33.798Z,65.62
2018-01-16T13:53:02.854Z,66.53
2018-01-16T13:55:31.066Z,66.10
2018-01-16T13:57:59.344Z,65.93
2018-01-16T14:00:27.596Z,66.64
2018-01-16T14:02:55.881Z,67.81
2018-01-16T14:05:24.230Z,65.60
2018-01-16T14:07:52.503Z,66.75
2018-01-16T14:10:20.827Z,66.92
2018-01-16T14:12:49.961Z,67.13
2018-01-16T14:15:18.222Z,68.26
2018-01-16T14:17:46.502Z,68.20
2018-01-16T14:20:14.757Z,67.49
2018-01-16T14:22:43.024Z,69.76
2018-01-16T14:25:11.267Z,68.14
2018-01-16T14:27:40.297Z,65.85
2018-01-16T14:30:08.551Z,65.40
2018-01-16T14:32:37.595Z,64.63
2018-01-16T14:35:05.844Z,63.65
2018-01-16T14:37:34.175Z,66.86
2018-01-16T14:40:03.192Z,66.45
2018-01-16T14:42:31.455Z,65.58
2018-01-16T14:45:00.489Z,67.20
2018-01-16T14:47:28.740Z,69.11
2018-01-16T14:49:56.997Z,68.84
2018-01-16T14:52:25.267Z,69.63
2018-01-16T14:54:53.644Z,71.51
2018-01-16T14:57:21.951Z,71.70
2018-01-16T14:59:50.258Z,72.03
2018-01-16T15:02:18.528Z,71.47
2018-01-16T15:04:46.806Z,70.94
2018-01-16T15:07:15.061Z,71.37
2018-01-16T15:09:44.091Z,71.53
2018-01-16T15:12:12.342Z,72.18
2018-01-16T15:14:40.631Z,71.78
2018-01-16T15:17:08.940Z,72.86
2018-01-16T15:19:37.967Z,72.83
2018-01-16T15:22:06.216Z,73.74
2018-01-16T15:24:34.480Z,74.36
2018-01-16T15:27:02.717Z,75.49
2018-01-16T15:29:31.766Z,75.91
2018-01-16T15:32:00.029Z,75.64
2018-01-16T15:34:28.299Z,75.86
2018-01-16T15:36:57.308Z,75.32
2018-01-16T15:39:26.335Z,75.75
2018-01-16T15:41:54.625Z,75.29
2018-01-16T15:44:22.911Z,74.85
2018-01-16T15:46:51.242Z,74.54
2018-01-16T15:49:19.534Z,75.05
2018-01-16T15:51:47.770Z,75.02
2018-01-16T15:54:16.071Z,74.63
2018-01-16T15:56:44.323Z,75.76
2018-01-16T15:59:12.629Z,76.00
2018-01-16T16:01:40.894Z,76.29
2018-01-16T16:04:09.967Z,76.16
2018-01-16T16:06:38.392Z,76.12
2018-01-16T16:09:07.435Z,75.91
2018-01-16T16:11:35.692Z,76.42
2018-01-16T16:14:03.964Z,76.23
2018-01-16T16:16:32.212Z,75.99
2018-01-16T16:19:00.556Z,76.22
2018-01-16T16:21:28.833Z,77.14
2018-01-16T16:23:57.125Z,76.79
2018-01-16T16:26:25.437Z,76.17
2018-01-16T16:28:53.656Z,75.96
2018-01-16T16:31:21.913Z,75.59
2018-01-16T16:33:50.172Z,75.22
2018-01-16T16:36:18.457Z,76.57
2018-01-16T16:38:46.719Z,75.96
2018-01-16T16:41:14.974Z,75.40
2018-01-16T16:43:44.018Z,74.26
2018-01-16T16:46:12.298Z,74.63
2018-01-16T16:48:40.615Z,73.11
2018-01-16T16:51:08.945Z,73.75
2018-01-16T16:53:37.212Z,73.89
2018-01-16T16:56:05.488Z,73.80
2018-01-16T16:58:33.735Z,73.56
2018-01-16T17:01:02.000Z,73.30
2018-01-16T17:03:31.020Z,73.27
2018-01-16T17:06:00.052Z,73.19
2018-01-16T17:08:28.287Z,73.28
2018-01-16T17:10:56.565Z,73.15
2018-01-16T17:13:24.901Z,74.06
2018-01-16T17:15:53.959Z,72.91
2018-01-16T17:18:22.220Z,72.82
2018-01-16T17:20:50.530Z,72.51
2018-01-16T17:23:18.801Z,71.93
2018-01-16T17:25:47.059Z,71.85
2018-01-16T17:28:15.307Z,72.09
2018-01-16T17:30:43.583Z,71.83
2018-01-16T17:33:11.857Z,72.59
2018-01-16T17:35:40.134Z,72.31
2018-01-16T17:38:08.414Z,72.31
2018-01-16T17:40:36.700Z,72.68
2018-01-16T17:43:04.951Z,72.27
2018-01-16T17:45:33.579Z,72.73
2018-01-16T17:48:01.846Z,73.59
2018-01-16T17:50:30.880Z,73.67
2018-01-16T17:52:59.138Z,72.93
2018-01-16T17:55:27.406Z,72.36
2018-01-16T17:57:55.668Z,72.70
2018-01-16T18:00:23.936Z,72.54
2018-01-16T18:02:52.235Z,72.84
2018-01-16T18:05:20.611Z,74.18
2018-01-16T18:07:48.924Z,74.52
2018-01-16T18:10:17.951Z,77.00
2018-01-16T18:12:46.239Z,75.73
2018-01-16T18:15:14.543Z,78.61
2018-01-16T18:17:43.248Z,80.39
2018-01-16T18:20:11.512Z,80.83
2018-01-16T18:22:39.791Z,82.37
2018-01-16T18:25:08.797Z,82.72
2018-01-16T18:27:37.083Z,84.56
2018-01-16T18:30:05.332Z,85.27
2018-01-16T18:32:34.474Z,85.32
2018-01-16T18:35:02.720Z,86.14
2018-01-16T18:37:30.983Z,86.12
2018-01-16T18:39:59.232Z,86.56
2018-01-16T18:42:27.488Z,87.47
2018-01-16T18:44:55.735Z,88.18
2018-01-16T18:47:24.041Z,87.69
2018-01-16T18:49:52.304Z,88.22
2018-01-16T18:52:20.612Z,89.85
2018-01-16T18:54:48.895Z,90.22
2018-01-16T18:57:17.939Z,90.82
2018-01-16T18:59:46.975Z,90.67
2018-01-16T19:02:15.260Z,91.23
2018-01-16T19:04:44.270Z,91.84
2018-01-16T19:07:12.541Z,91.03
2018-01-16T19:09:41.561Z,91.07
2018-01-16T19:12:10.612Z,92.00
2018-01-16T19:14:38.870Z,92.25
2018-01-16T19:17:07.215Z,92.54
2018-01-16T19:19:33.379Z,92.82
2018-01-16T19:22:00.296Z,92.21
2018-01-16T19:24:26.518Z,91.77
2018-01-16T19:26:52.711Z,91.85
2018-01-16T19:29:18.983Z,91.91
2018-01-16T19:31:45.133Z,92.55
2018-01-16T19:34:11.300Z,92.23
2018-01-16T19:36:37.565Z,92.01
2018-01-16T19:39:03.750Z,92.57
2018-01-16T19:41:29.928Z,93.36
2018-01-16T19:43:56.909Z,93.08
2018-01-16T19:46:23.896Z,93.23
2018-01-16T19:48:50.217Z,93.40
2018-01-16T19:51:17.144Z,92.88
2018-01-16T19:53:43.306Z,92.84
2018-01-16T19:56:09.540Z,93.55
2018-01-16T19:58:35.732Z,93.36
2018-01-16T20:01:03.025Z,94.08
2018-01-16T20:03:29.268Z,94.00
2018-01-16T20:05:55.467Z,94.55
2018-01-16T20:08:21.715Z,93.70
2018-01-16T20:10:47.989Z,93.97
2018-01-16T20:13:14.944Z,94.08
2018-01-16T20:15:41.200Z,94.46
2018-01-16T20:18:07.480Z,95.04
2018-01-16T20:20:33.703Z,95.96
2018-01-16T20:23:00.583Z,95.41
2018-01-16T20:25:26.850Z,95.25
2018-01-16T20:27:53.069Z,95.19
2018-01-16T20:30:19.239Z,95.32
2018-01-16T20:32:45.418Z,95.49
2018-01-16T20:35:11.670Z,94.78
2018-01-16T20:37:38.743Z,94.33
2018-01-16T20:40:04.997Z,94.78
2018-01-16T20:42:31.980Z,94.96
2018-01-16T20:44:58.194Z,94.56
2018-01-16T20:47:24.467Z,94.98
2018-01-16T20:49:51.320Z,95.19
2018-01-16T20:52:17.576Z,95.25
2018-01-16T20:54:43.919Z,94.72
2018-01-16T20:57:10.157Z,95.02
2018-01-16T20:59:36.410Z,94.66
2018-01-16T21:02:02.583Z,95.06
2018-01-16T21:04:29.553Z,94.95
2018-01-16T21:06:55.721Z,95.01
2018-01-16T21:09:21.982Z,94.87
2018-01-16T21:11:48.143Z,94.36
2018-01-16T21:14:14.366Z,94.58
2018-01-16T21:16:40.709Z,94.30
2018-01-16T21:19:07.018Z,93.30
2018-01-16T21:21:33.215Z,93.51
2018-01-16T21:24:00.186Z,93.78
2018-01-16T21:26:27.158Z,93.94
2018-01-16T21:28:53.350Z,93.19
2018-01-16T21:31:19.500Z,92.28
2018-01-16T21:33:45.826Z,91.96
2018-01-16T21:36:12.045Z,91.44
2018-01-16T21:38:38.289Z,91.10
2018-01-16T21:41:04.584Z,89.54
2018-01-16T21:43:31.492Z,87.92
2018-01-16T21:45:57.794Z,88.07
2018-01-16T21:48:24.093Z,88.64
2018-01-16T21:50:50.349Z,88.75
2018-01-16T21:53:16.624Z,89.28
2018-01-16T21:55:42.858Z,87.86
2018-01-16T21:58:09.020Z,87.77
2018-01-16T22:00:35.939Z,87.84
2018-01-16T22:03:02.895Z,87.58
2018-01-16T22:05:29.834Z,87.36
2018-01-16T22:07:56.068Z,87.63
2018-01-16T22:10:22.315Z,87.56
2018-01-16T22:12:48.482Z,87.72
2018-01-16T22:15:14.763Z,88.03
2018-01-16T22:17:40.948Z,88.63
2018-01-16T22:20:07.197Z,87.56
2018-01-16T22:22:34.087Z,87.82
2018-01-16T22:25:00.368Z,87.72
2018-01-16T22:27:26.681Z,87.18
2018-01-16T22:29:53.136Z,86.99
2018-01-16T22:32:19.672Z,85.06
2018-01-16T22:34:48.239Z,85.27
2018-01-16T22:37:15.182Z,84.16
2018-01-16T22:39:41.382Z,83.68
2018-01-16T22:42:07.831Z,83.02
2018-01-16T22:44:34.317Z,83.52
2018-01-16T22:47:01.760Z,82.46
2018-01-16T22:49:28.647Z,83.38
2018-01-16T22:51:55.550Z,84.63
2018-01-16T22:54:22.026Z,85.26
2018-01-16T22:56:48.478Z,86.73
2018-01-16T22:59:14.656Z,85.73
2018-01-16T23:01:40.815Z,87.79
2018-01-16T23:04:07.426Z,87.99
2018-01-16T23:06:34.710Z,89.14
2018-01-16T23:09:00.912Z,90.37
2018-01-16T23:11:27.072Z,90.99
2018-01-16T23:13:53.971Z,90.84
2018-01-16T23:16:20.123Z,91.18
2018-01-16T23:18:46.251Z,91.34
2018-01-16T23:21:12.451Z,91.28
2018-01-16T23:23:39.363Z,91.51
2018-01-16T23:26:05.593Z,90.98
2018-01-16T23:28:31.776Z,91.99
2018-01-16T23:30:57.934Z,93.14
2018-01-16T23:33:24.832Z,93.48
2018-01-16T23:35:51.075Z,93.12
2018-01-16T23:38:17.276Z,91.63
2018-01-16T23:40:43.428Z,92.09
2018-01-16T23:43:09.641Z,92.91
2018-01-16T23:45:36.676Z,92.70
2018-01-16T23:48:03.067Z,92.54
2018-01-16T23:50:29.309Z,93.09
2018-01-16T23:52:56.181Z,93.16
2018-01-16T23:55:22.345Z,93.00
2018-01-16T23:57:48.527Z,93.53
